This is the latest recevied weather packets stored in our database for station/object EA2KR-10. If no packets are shown the sender has not sent any weather packets the latest 10 day(s).
| Time | Temp. | Humidity | Pressure | Rain* | Wind** | Luminosity | Snow |
|---|---|---|---|---|---|---|---|
| 1787792602 | 28.33° C | 26% | 1023.2 hPa | - | - | - | - |
| 1787790801 | 28.33° C | 26% | 1023.4 hPa | - | - | - | - |
| 1787789001 | 28.89° C | 26% | 1023.7 hPa | - | - | - | - |
| 1787787201 | 29.44° C | 24% | 1023.5 hPa | - | - | - | - |
| 1787785401 | 30° C | 25% | 1023.7 hPa | - | - | - | - |
| 1787783601 | 30.56° C | 24% | 1023.8 hPa | - | - | - | - |
| 1787781801 | 31.11° C | 24% | 1023.4 hPa | - | - | - | - |
| 1787780001 | 32.22° C | 23% | 1023 hPa | - | - | - | - |
| 1787778201 | 33.33° C | 22% | 1023.1 hPa | - | - | - | - |
| 1787776400 | 33.89° C | 22% | 1022.6 hPa | - | - | - | - |
| 1787774599 | 34.44° C | 22% | 1022.3 hPa | - | - | - | - |
| 1787772799 | 35.56° C | 23% | 1021.7 hPa | - | - | - | - |
| 1787770999 | 36.11° C | 24% | 1021.3 hPa | - | - | - | - |
| 1787769202 | 37.22° C | 23% | 1020.8 hPa | - | - | - | - |
| 1787767401 | 38.33° C | 23% | 1020.5 hPa | - | - | - | - |
| 1787765601 | 39.44° C | 22% | 1020.4 hPa | - | - | - | - |
| 1787763801 | 41.11° C | 20% | 1020.4 hPa | - | - | - | - |
| 1787762001 | 42.22° C | 20% | 1020.4 hPa | - | - | - | - |
| 1787760201 | 42.78° C | 20% | 1020.4 hPa | - | - | - | - |
| 1787758401 | 42.78° C | 20% | 1020.5 hPa | - | - | - | - |
| 1787756601 | 42.22° C | 20% | 1021 hPa | - | - | - | - |
| 1787754801 | 41.67° C | 21% | 1021.2 hPa | - | - | - | - |
| 1787753001 | 41.11° C | 21% | 1021.3 hPa | - | - | - | - |
| 1787751200 | 40.56° C | 22% | 1021.6 hPa | - | - | - | - |
| 1787749400 | 39.44° C | 24% | 1021.8 hPa | - | - | - | - |
* Rain since midnight (hover to see other rain measurements)
** Current wind speed in m/s (hover to see current wind gust speed)